sensor_id;sensor_type;location;lat;lon;timestamp;P1;durP1;ratioP1;P2;durP2;ratioP2
63016;SDS011;50274;45.640;11.756;2023-04-03T00:01:14;12.88;;;8.07;;
63016;SDS011;50274;45.640;11.756;2023-04-03T00:03:41;15.45;;;8.50;;
63016;SDS011;50274;45.640;11.756;2023-04-03T00:06:09;12.20;;;7.95;;
63016;SDS011;50274;45.640;11.756;2023-04-03T00:08:37;11.90;;;7.93;;
63016;SDS011;50274;45.640;11.756;2023-04-03T00:11:03;13.48;;;8.20;;
63016;SDS011;50274;45.640;11.756;2023-04-03T00:13:30;13.82;;;7.45;;
63016;SDS011;50274;45.640;11.756;2023-04-03T00:15:56;11.65;;;7.07;;
63016;SDS011;50274;45.640;11.756;2023-04-03T00:18:25;11.57;;;7.03;;
63016;SDS011;50274;45.640;11.756;2023-04-03T00:20:50;11.83;;;7.30;;
63016;SDS011;50274;45.640;11.756;2023-04-03T00:23:18;10.32;;;7.05;;
63016;SDS011;50274;45.640;11.756;2023-04-03T00:25:44;11.27;;;7.55;;
63016;SDS011;50274;45.640;11.756;2023-04-03T00:28:10;11.40;;;6.83;;
63016;SDS011;50274;45.640;11.756;2023-04-03T00:30:36;10.95;;;7.00;;
63016;SDS011;50274;45.640;11.756;2023-04-03T00:33:02;10.77;;;6.88;;
63016;SDS011;50274;45.640;11.756;2023-04-03T00:35:29;9.82;;;6.10;;
63016;SDS011;50274;45.640;11.756;2023-04-03T00:37:55;10.40;;;6.83;;
63016;SDS011;50274;45.640;11.756;2023-04-03T00:40:22;10.63;;;6.57;;
63016;SDS011;50274;45.640;11.756;2023-04-03T00:42:51;9.20;;;6.03;;
63016;SDS011;50274;45.640;11.756;2023-04-03T00:45:23;11.23;;;6.22;;
63016;SDS011;50274;45.640;11.756;2023-04-03T00:47:50;9.80;;;6.03;;
63016;SDS011;50274;45.640;11.756;2023-04-03T00:50:16;8.80;;;5.47;;
63016;SDS011;50274;45.640;11.756;2023-04-03T00:52:43;9.95;;;5.10;;
63016;SDS011;50274;45.640;11.756;2023-04-03T00:55:11;9.82;;;5.60;;
63016;SDS011;50274;45.640;11.756;2023-04-03T00:57:39;9.67;;;5.83;;
63016;SDS011;50274;45.640;11.756;2023-04-03T01:00:08;9.95;;;5.88;;
63016;SDS011;50274;45.640;11.756;2023-04-03T01:02:37;9.80;;;5.68;;
63016;SDS011;50274;45.640;11.756;2023-04-03T01:05:05;9.02;;;5.40;;
63016;SDS011;50274;45.640;11.756;2023-04-03T01:07:32;9.88;;;5.55;;
63016;SDS011;50274;45.640;11.756;2023-04-03T01:10:01;9.47;;;5.47;;
63016;SDS011;50274;45.640;11.756;2023-04-03T01:12:40;9.20;;;5.35;;
63016;SDS011;50274;45.640;11.756;2023-04-03T01:15:15;9.13;;;5.82;;
63016;SDS011;50274;45.640;11.756;2023-04-03T01:17:53;8.77;;;5.50;;
63016;SDS011;50274;45.640;11.756;2023-04-03T01:25:30;8.70;;;5.10;;
63016;SDS011;50274;45.640;11.756;2023-04-03T01:27:56;9.88;;;5.57;;
63016;SDS011;50274;45.640;11.756;2023-04-03T01:30:23;9.23;;;5.47;;
63016;SDS011;50274;45.640;11.756;2023-04-03T01:32:55;8.63;;;5.53;;
63016;SDS011;50274;45.640;11.756;2023-04-03T01:35:22;9.43;;;4.90;;
63016;SDS011;50274;45.640;11.756;2023-04-03T01:37:48;9.60;;;5.25;;
63016;SDS011;50274;45.640;11.756;2023-04-03T01:40:14;8.45;;;5.00;;
63016;SDS011;50274;45.640;11.756;2023-04-03T01:42:40;10.00;;;5.00;;
63016;SDS011;50274;45.640;11.756;2023-04-03T01:45:06;9.63;;;4.67;;
63016;SDS011;50274;45.640;11.756;2023-04-03T01:47:32;7.60;;;4.28;;
63016;SDS011;50274;45.640;11.756;2023-04-03T01:49:58;8.40;;;4.60;;
63016;SDS011;50274;45.640;11.756;2023-04-03T01:52:24;8.47;;;4.63;;
63016;SDS011;50274;45.640;11.756;2023-04-03T01:54:50;7.53;;;4.20;;
63016;SDS011;50274;45.640;11.756;2023-04-03T01:57:16;7.20;;;4.05;;
63016;SDS011;50274;45.640;11.756;2023-04-03T01:59:44;7.53;;;3.83;;
63016;SDS011;50274;45.640;11.756;2023-04-03T02:02:10;6.68;;;3.78;;
63016;SDS011;50274;45.640;11.756;2023-04-03T02:04:37;6.93;;;4.07;;
63016;SDS011;50274;45.640;11.756;2023-04-03T02:07:03;7.03;;;3.90;;
63016;SDS011;50274;45.640;11.756;2023-04-03T02:09:29;7.28;;;3.70;;
63016;SDS011;50274;45.640;11.756;2023-04-03T02:11:55;6.15;;;3.65;;
63016;SDS011;50274;45.640;11.756;2023-04-03T02:14:20;7.07;;;3.90;;
63016;SDS011;50274;45.640;11.756;2023-04-03T02:16:48;7.40;;;3.63;;
63016;SDS011;50274;45.640;11.756;2023-04-03T02:19:14;7.68;;;3.92;;
63016;SDS011;50274;45.640;11.756;2023-04-03T02:21:41;7.40;;;4.05;;
63016;SDS011;50274;45.640;11.756;2023-04-03T02:24:07;7.13;;;3.70;;
63016;SDS011;50274;45.640;11.756;2023-04-03T02:26:35;6.50;;;3.67;;
63016;SDS011;50274;45.640;11.756;2023-04-03T02:29:01;8.00;;;3.53;;
63016;SDS011;50274;45.640;11.756;2023-04-03T02:31:26;7.63;;;3.60;;
63016;SDS011;50274;45.640;11.756;2023-04-03T02:33:52;6.00;;;3.58;;
63016;SDS011;50274;45.640;11.756;2023-04-03T02:36:18;8.67;;;3.63;;
63016;SDS011;50274;45.640;11.756;2023-04-03T02:38:44;7.65;;;3.70;;
63016;SDS011;50274;45.640;11.756;2023-04-03T02:41:11;7.50;;;3.58;;
63016;SDS011;50274;45.640;11.756;2023-04-03T02:43:37;6.53;;;3.40;;
63016;SDS011;50274;45.640;11.756;2023-04-03T02:46:04;5.87;;;3.10;;
63016;SDS011;50274;45.640;11.756;2023-04-03T02:48:30;6.13;;;2.95;;
63016;SDS011;50274;45.640;11.756;2023-04-03T02:50:58;5.30;;;2.83;;
63016;SDS011;50274;45.640;11.756;2023-04-03T02:53:24;6.20;;;2.88;;
63016;SDS011;50274;45.640;11.756;2023-04-03T02:55:50;5.50;;;2.50;;
63016;SDS011;50274;45.640;11.756;2023-04-03T02:58:16;5.05;;;2.38;;
63016;SDS011;50274;45.640;11.756;2023-04-03T03:00:42;6.03;;;2.60;;
63016;SDS011;50274;45.640;11.756;2023-04-03T03:03:08;4.93;;;2.45;;
63016;SDS011;50274;45.640;11.756;2023-04-03T03:05:34;6.45;;;2.30;;
63016;SDS011;50274;45.640;11.756;2023-04-03T03:08:00;5.75;;;2.45;;
63016;SDS011;50274;45.640;11.756;2023-04-03T03:10:25;6.00;;;2.27;;
63016;SDS011;50274;45.640;11.756;2023-04-03T03:12:51;8.18;;;2.15;;
63016;SDS011;50274;45.640;11.756;2023-04-03T03:15:17;5.75;;;3.00;;
63016;SDS011;50274;45.640;11.756;2023-04-03T03:17:44;5.30;;;2.43;;
63016;SDS011;50274;45.640;11.756;2023-04-03T03:20:10;5.20;;;2.50;;
63016;SDS011;50274;45.640;11.756;2023-04-03T03:22:39;6.07;;;2.45;;
63016;SDS011;50274;45.640;11.756;2023-04-03T03:25:05;5.60;;;2.17;;
63016;SDS011;50274;45.640;11.756;2023-04-03T03:27:31;5.40;;;2.33;;
63016;SDS011;50274;45.640;11.756;2023-04-03T03:29:56;5.20;;;2.13;;
63016;SDS011;50274;45.640;11.756;2023-04-03T03:32:22;4.75;;;2.28;;
63016;SDS011;50274;45.640;11.756;2023-04-03T03:34:48;7.47;;;2.83;;
63016;SDS011;50274;45.640;11.756;2023-04-03T03:37:14;8.45;;;2.35;;
63016;SDS011;50274;45.640;11.756;2023-04-03T03:39:42;5.30;;;2.00;;
63016;SDS011;50274;45.640;11.756;2023-04-03T03:42:08;5.13;;;2.40;;
63016;SDS011;50274;45.640;11.756;2023-04-03T03:44:34;5.90;;;2.65;;
63016;SDS011;50274;45.640;11.756;2023-04-03T03:47:00;7.97;;;2.38;;
63016;SDS011;50274;45.640;11.756;2023-04-03T03:49:25;4.83;;;2.40;;
63016;SDS011;50274;45.640;11.756;2023-04-03T03:51:51;5.00;;;2.25;;
63016;SDS011;50274;45.640;11.756;2023-04-03T03:54:17;5.30;;;2.10;;
63016;SDS011;50274;45.640;11.756;2023-04-03T03:56:43;4.80;;;2.10;;
63016;SDS011;50274;45.640;11.756;2023-04-03T03:59:11;6.78;;;2.42;;
63016;SDS011;50274;45.640;11.756;2023-04-03T04:01:37;6.07;;;2.10;;
63016;SDS011;50274;45.640;11.756;2023-04-03T04:04:03;4.90;;;1.95;;
63016;SDS011;50274;45.640;11.756;2023-04-03T04:06:29;5.05;;;2.00;;
63016;SDS011;50274;45.640;11.756;2023-04-03T04:08:55;5.30;;;2.60;;
63016;SDS011;50274;45.640;11.756;2023-04-03T04:11:20;4.78;;;2.08;;
63016;SDS011;50274;45.640;11.756;2023-04-03T04:13:47;4.40;;;2.05;;
63016;SDS011;50274;45.640;11.756;2023-04-03T04:16:15;4.80;;;2.17;;
63016;SDS011;50274;45.640;11.756;2023-04-03T04:18:41;5.73;;;1.93;;
63016;SDS011;50274;45.640;11.756;2023-04-03T04:21:06;5.50;;;2.63;;
63016;SDS011;50274;45.640;11.756;2023-04-03T04:23:32;4.93;;;1.90;;
63016;SDS011;50274;45.640;11.756;2023-04-03T04:25:58;4.88;;;2.08;;
63016;SDS011;50274;45.640;11.756;2023-04-03T04:28:24;5.25;;;1.92;;
63016;SDS011;50274;45.640;11.756;2023-04-03T04:30:50;4.63;;;2.17;;
63016;SDS011;50274;45.640;11.756;2023-04-03T04:33:16;4.70;;;2.10;;
63016;SDS011;50274;45.640;11.756;2023-04-03T04:35:42;4.43;;;1.80;;
63016;SDS011;50274;45.640;11.756;2023-04-03T04:38:08;5.13;;;2.00;;
63016;SDS011;50274;45.640;11.756;2023-04-03T04:40:34;6.55;;;1.90;;
63016;SDS011;50274;45.640;11.756;2023-04-03T04:43:02;6.10;;;2.40;;
63016;SDS011;50274;45.640;11.756;2023-04-03T04:45:28;5.55;;;2.67;;
63016;SDS011;50274;45.640;11.756;2023-04-03T04:47:55;6.27;;;2.63;;
63016;SDS011;50274;45.640;11.756;2023-04-03T04:50:21;5.07;;;2.17;;
63016;SDS011;50274;45.640;11.756;2023-04-03T04:52:47;4.45;;;2.00;;
63016;SDS011;50274;45.640;11.756;2023-04-03T04:55:13;6.13;;;2.15;;
63016;SDS011;50274;45.640;11.756;2023-04-03T04:57:41;5.63;;;2.17;;
63016;SDS011;50274;45.640;11.756;2023-04-03T05:00:09;5.05;;;2.30;;
63016;SDS011;50274;45.640;11.756;2023-04-03T05:02:35;5.93;;;2.40;;
63016;SDS011;50274;45.640;11.756;2023-04-03T05:05:01;5.57;;;1.90;;
63016;SDS011;50274;45.640;11.756;2023-04-03T05:07:28;9.63;;;2.67;;
63016;SDS011;50274;45.640;11.756;2023-04-03T05:09:54;5.85;;;2.53;;
63016;SDS011;50274;45.640;11.756;2023-04-03T05:12:20;5.03;;;2.03;;
63016;SDS011;50274;45.640;11.756;2023-04-03T05:14:48;5.10;;;2.30;;
63016;SDS011;50274;45.640;11.756;2023-04-03T05:17:14;5.53;;;2.30;;
63016;SDS011;50274;45.640;11.756;2023-04-03T05:19:40;8.38;;;1.95;;
63016;SDS011;50274;45.640;11.756;2023-04-03T05:22:08;5.10;;;2.05;;
63016;SDS011;50274;45.640;11.756;2023-04-03T05:24:38;5.13;;;1.90;;
63016;SDS011;50274;45.640;11.756;2023-04-03T05:27:07;5.00;;;2.03;;
63016;SDS011;50274;45.640;11.756;2023-04-03T05:29:35;4.78;;;2.10;;
63016;SDS011;50274;45.640;11.756;2023-04-03T05:32:01;6.35;;;1.80;;
63016;SDS011;50274;45.640;11.756;2023-04-03T05:34:27;4.43;;;2.17;;
63016;SDS011;50274;45.640;11.756;2023-04-03T05:36:53;4.60;;;1.90;;
63016;SDS011;50274;45.640;11.756;2023-04-03T05:39:18;4.82;;;1.67;;
63016;SDS011;50274;45.640;11.756;2023-04-03T05:41:44;6.37;;;2.57;;
63016;SDS011;50274;45.640;11.756;2023-04-03T05:44:10;5.90;;;2.83;;
63016;SDS011;50274;45.640;11.756;2023-04-03T05:46:36;8.73;;;3.00;;
63016;SDS011;50274;45.640;11.756;2023-04-03T05:49:02;6.07;;;2.63;;
63016;SDS011;50274;45.640;11.756;2023-04-03T05:51:29;5.97;;;2.38;;
63016;SDS011;50274;45.640;11.756;2023-04-03T05:54:00;5.82;;;2.03;;
63016;SDS011;50274;45.640;11.756;2023-04-03T05:56:38;6.20;;;2.33;;
63016;SDS011;50274;45.640;11.756;2023-04-03T05:59:04;5.23;;;2.00;;
63016;SDS011;50274;45.640;11.756;2023-04-03T06:01:30;7.00;;;2.10;;
63016;SDS011;50274;45.640;11.756;2023-04-03T06:03:56;8.85;;;2.30;;
63016;SDS011;50274;45.640;11.756;2023-04-03T06:06:23;5.13;;;1.98;;
63016;SDS011;50274;45.640;11.756;2023-04-03T06:08:49;5.47;;;2.30;;
63016;SDS011;50274;45.640;11.756;2023-04-03T06:11:15;6.30;;;2.28;;
63016;SDS011;50274;45.640;11.756;2023-04-03T06:13:41;6.65;;;2.40;;
63016;SDS011;50274;45.640;11.756;2023-04-03T06:16:09;9.00;;;2.80;;
63016;SDS011;50274;45.640;11.756;2023-04-03T06:18:40;7.10;;;2.60;;
63016;SDS011;50274;45.640;11.756;2023-04-03T06:21:06;9.30;;;2.63;;
63016;SDS011;50274;45.640;11.756;2023-04-03T06:23:33;4.80;;;2.10;;
63016;SDS011;50274;45.640;11.756;2023-04-03T06:25:58;4.43;;;1.92;;
63016;SDS011;50274;45.640;11.756;2023-04-03T06:28:27;6.83;;;2.17;;
63016;SDS011;50274;45.640;11.756;2023-04-03T06:30:53;6.53;;;2.50;;
63016;SDS011;50274;45.640;11.756;2023-04-03T06:33:21;6.47;;;2.28;;
63016;SDS011;50274;45.640;11.756;2023-04-03T06:35:49;7.75;;;2.42;;
63016;SDS011;50274;45.640;11.756;2023-04-03T06:38:20;5.77;;;2.60;;
63016;SDS011;50274;45.640;11.756;2023-04-03T06:40:46;5.80;;;2.13;;
63016;SDS011;50274;45.640;11.756;2023-04-03T06:43:12;5.55;;;2.13;;
63016;SDS011;50274;45.640;11.756;2023-04-03T06:45:40;6.13;;;2.63;;
63016;SDS011;50274;45.640;11.756;2023-04-03T06:48:06;6.17;;;2.37;;
63016;SDS011;50274;45.640;11.756;2023-04-03T06:50:31;6.97;;;2.30;;
63016;SDS011;50274;45.640;11.756;2023-04-03T06:52:57;5.78;;;2.20;;
63016;SDS011;50274;45.640;11.756;2023-04-03T06:55:25;6.53;;;2.40;;
63016;SDS011;50274;45.640;11.756;2023-04-03T06:57:51;8.90;;;2.53;;
63016;SDS011;50274;45.640;11.756;2023-04-03T07:00:17;6.63;;;1.92;;
63016;SDS011;50274;45.640;11.756;2023-04-03T07:02:44;4.45;;;1.95;;
63016;SDS011;50274;45.640;11.756;2023-04-03T07:05:13;7.83;;;2.00;;
63016;SDS011;50274;45.640;11.756;2023-04-03T07:07:41;5.95;;;2.05;;
63016;SDS011;50274;45.640;11.756;2023-04-03T07:10:07;6.47;;;2.20;;
63016;SDS011;50274;45.640;11.756;2023-04-03T07:12:35;10.23;;;2.22;;
63016;SDS011;50274;45.640;11.756;2023-04-03T07:15:02;5.88;;;2.20;;
63016;SDS011;50274;45.640;11.756;2023-04-03T07:17:30;5.23;;;1.80;;
63016;SDS011;50274;45.640;11.756;2023-04-03T07:19:56;5.72;;;2.10;;
63016;SDS011;50274;45.640;11.756;2023-04-03T07:22:22;5.05;;;2.00;;
63016;SDS011;50274;45.640;11.756;2023-04-03T07:24:48;8.30;;;2.40;;
63016;SDS011;50274;45.640;11.756;2023-04-03T07:27:13;6.53;;;2.03;;
63016;SDS011;50274;45.640;11.756;2023-04-03T07:29:39;6.18;;;1.60;;
63016;SDS011;50274;45.640;11.756;2023-04-03T07:32:05;5.97;;;1.42;;
63016;SDS011;50274;45.640;11.756;2023-04-03T07:34:32;6.30;;;1.73;;
63016;SDS011;50274;45.640;11.756;2023-04-03T07:36:58;7.15;;;1.75;;
63016;SDS011;50274;45.640;11.756;2023-04-03T07:39:25;7.40;;;1.77;;
63016;SDS011;50274;45.640;11.756;2023-04-03T07:41:51;7.80;;;1.20;;
63016;SDS011;50274;45.640;11.756;2023-04-03T07:44:17;9.70;;;1.70;;
63016;SDS011;50274;45.640;11.756;2023-04-03T07:46:43;8.02;;;1.60;;
63016;SDS011;50274;45.640;11.756;2023-04-03T07:49:09;6.32;;;1.10;;
63016;SDS011;50274;45.640;11.756;2023-04-03T07:51:35;6.57;;;1.63;;
63016;SDS011;50274;45.640;11.756;2023-04-03T07:54:01;5.03;;;1.50;;
63016;SDS011;50274;45.640;11.756;2023-04-03T07:56:26;8.10;;;1.50;;
63016;SDS011;50274;45.640;11.756;2023-04-03T07:58:52;10.13;;;1.60;;
63016;SDS011;50274;45.640;11.756;2023-04-03T08:01:18;7.40;;;1.57;;
63016;SDS011;50274;45.640;11.756;2023-04-03T08:03:44;6.70;;;1.48;;
63016;SDS011;50274;45.640;11.756;2023-04-03T08:06:10;5.63;;;1.83;;
63016;SDS011;50274;45.640;11.756;2023-04-03T08:08:36;7.00;;;1.67;;
63016;SDS011;50274;45.640;11.756;2023-04-03T08:11:02;6.90;;;1.75;;
63016;SDS011;50274;45.640;11.756;2023-04-03T08:13:33;6.43;;;1.75;;
63016;SDS011;50274;45.640;11.756;2023-04-03T08:16:14;6.70;;;1.60;;
63016;SDS011;50274;45.640;11.756;2023-04-03T08:18:42;9.27;;;1.77;;
63016;SDS011;50274;45.640;11.756;2023-04-03T08:21:09;5.38;;;1.45;;
63016;SDS011;50274;45.640;11.756;2023-04-03T08:23:36;5.78;;;1.60;;
63016;SDS011;50274;45.640;11.756;2023-04-03T08:26:13;4.57;;;1.75;;
63016;SDS011;50274;45.640;11.756;2023-04-03T08:28:40;6.37;;;1.60;;
63016;SDS011;50274;45.640;11.756;2023-04-03T08:31:07;5.75;;;1.85;;
63016;SDS011;50274;45.640;11.756;2023-04-03T08:33:37;6.53;;;1.83;;
63016;SDS011;50274;45.640;11.756;2023-04-03T08:36:04;6.95;;;2.05;;
63016;SDS011;50274;45.640;11.756;2023-04-03T08:38:31;7.78;;;2.00;;
63016;SDS011;50274;45.640;11.756;2023-04-03T08:46:42;6.32;;;1.60;;
63016;SDS011;50274;45.640;11.756;2023-04-03T08:49:39;9.10;;;1.90;;
63016;SDS011;50274;45.640;11.756;2023-04-03T08:52:19;8.80;;;1.80;;
63016;SDS011;50274;45.640;11.756;2023-04-03T08:54:52;6.93;;;1.77;;
63016;SDS011;50274;45.640;11.756;2023-04-03T08:57:35;7.07;;;1.65;;
63016;SDS011;50274;45.640;11.756;2023-04-03T09:00:06;6.05;;;1.80;;
63016;SDS011;50274;45.640;11.756;2023-04-03T09:02:43;9.60;;;1.70;;
63016;SDS011;50274;45.640;11.756;2023-04-03T09:10:52;4.63;;;1.50;;
63016;SDS011;50274;45.640;11.756;2023-04-03T09:13:52;7.28;;;1.92;;
63016;SDS011;50274;45.640;11.756;2023-04-03T09:16:27;8.63;;;2.03;;
63016;SDS011;50274;45.640;11.756;2023-04-03T09:19:18;9.27;;;1.67;;
63016;SDS011;50274;45.640;11.756;2023-04-03T09:21:53;5.07;;;1.30;;
63016;SDS011;50274;45.640;11.756;2023-04-03T09:24:41;5.05;;;1.65;;
63016;SDS011;50274;45.640;11.756;2023-04-03T09:27:10;6.57;;;1.50;;
63016;SDS011;50274;45.640;11.756;2023-04-03T09:29:40;4.50;;;1.58;;
63016;SDS011;50274;45.640;11.756;2023-04-03T09:32:44;7.00;;;2.13;;
63016;SDS011;50274;45.640;11.756;2023-04-03T09:35:50;4.05;;;1.40;;
63016;SDS011;50274;45.640;11.756;2023-04-03T09:38:00;5.05;;;1.52;;
63016;SDS011;50274;45.640;11.756;2023-04-03T09:40:36;5.45;;;1.48;;
63016;SDS011;50274;45.640;11.756;2023-04-03T09:43:51;8.77;;;2.17;;
63016;SDS011;50274;45.640;11.756;2023-04-03T09:45:56;5.20;;;1.40;;
63016;SDS011;50274;45.640;11.756;2023-04-03T09:49:01;4.30;;;1.60;;
63016;SDS011;50274;45.640;11.756;2023-04-03T09:51:29;6.57;;;2.03;;
63016;SDS011;50274;45.640;11.756;2023-04-03T09:53:58;6.30;;;1.60;;
63016;SDS011;50274;45.640;11.756;2023-04-03T09:56:27;4.97;;;1.70;;
63016;SDS011;50274;45.640;11.756;2023-04-03T10:04:04;5.50;;;2.20;;
63016;SDS011;50274;45.640;11.756;2023-04-03T10:06:33;5.78;;;1.50;;
63016;SDS011;50274;45.640;11.756;2023-04-03T10:09:03;9.93;;;2.45;;
63016;SDS011;50274;45.640;11.756;2023-04-03T10:11:31;5.20;;;1.80;;
63016;SDS011;50274;45.640;11.756;2023-04-03T10:14:01;5.95;;;1.63;;
63016;SDS011;50274;45.640;11.756;2023-04-03T10:16:35;4.93;;;1.67;;
63016;SDS011;50274;45.640;11.756;2023-04-03T10:21:54;5.45;;;1.60;;
63016;SDS011;50274;45.640;11.756;2023-04-03T10:24:23;6.00;;;1.60;;
63016;SDS011;50274;45.640;11.756;2023-04-03T10:26:59;5.85;;;1.67;;
63016;SDS011;50274;45.640;11.756;2023-04-03T10:35:34;5.68;;;1.50;;
63016;SDS011;50274;45.640;11.756;2023-04-03T10:41:10;7.38;;;1.60;;
63016;SDS011;50274;45.640;11.756;2023-04-03T10:47:12;5.70;;;1.60;;
63016;SDS011;50274;45.640;11.756;2023-04-03T10:52:30;5.90;;;1.97;;
63016;SDS011;50274;45.640;11.756;2023-04-03T10:57:29;7.05;;;2.10;;
63016;SDS011;50274;45.640;11.756;2023-04-03T10:59:57;4.03;;;1.50;;
63016;SDS011;50274;45.640;11.756;2023-04-03T11:02:48;5.45;;;1.58;;
63016;SDS011;50274;45.640;11.756;2023-04-03T11:11:00;6.40;;;1.80;;
63016;SDS011;50274;45.640;11.756;2023-04-03T11:13:45;5.60;;;1.98;;
63016;SDS011;50274;45.640;11.756;2023-04-03T11:16:24;5.63;;;1.75;;
63016;SDS011;50274;45.640;11.756;2023-04-03T11:23:56;5.88;;;2.10;;
63016;SDS011;50274;45.640;11.756;2023-04-03T11:26:25;5.97;;;1.73;;
63016;SDS011;50274;45.640;11.756;2023-04-03T11:29:00;7.07;;;2.20;;
63016;SDS011;50274;45.640;11.756;2023-04-03T11:31:41;9.97;;;2.00;;
63016;SDS011;50274;45.640;11.756;2023-04-03T11:34:44;4.65;;;2.00;;
63016;SDS011;50274;45.640;11.756;2023-04-03T11:37:32;4.90;;;2.08;;
63016;SDS011;50274;45.640;11.756;2023-04-03T11:42:43;4.68;;;1.70;;
63016;SDS011;50274;45.640;11.756;2023-04-03T11:47:53;8.27;;;1.90;;
63016;SDS011;50274;45.640;11.756;2023-04-03T11:58:18;8.13;;;1.83;;
63016;SDS011;50274;45.640;11.756;2023-04-03T12:11:14;5.77;;;2.00;;
63016;SDS011;50274;45.640;11.756;2023-04-03T12:16:24;8.23;;;2.40;;
63016;SDS011;50274;45.640;11.756;2023-04-03T12:18:55;5.03;;;2.00;;
63016;SDS011;50274;45.640;11.756;2023-04-03T12:26:40;5.65;;;1.88;;
63016;SDS011;50274;45.640;11.756;2023-04-03T12:35:14;7.60;;;1.90;;
63016;SDS011;50274;45.640;11.756;2023-04-03T12:37:48;7.70;;;2.20;;
63016;SDS011;50274;45.640;11.756;2023-04-03T12:43:18;7.47;;;2.17;;
63016;SDS011;50274;45.640;11.756;2023-04-03T12:48:22;5.65;;;1.70;;
63016;SDS011;50274;45.640;11.756;2023-04-03T12:50:53;5.63;;;1.43;;
63016;SDS011;50274;45.640;11.756;2023-04-03T12:53:25;4.18;;;1.40;;
63016;SDS011;50274;45.640;11.756;2023-04-03T12:56:18;3.95;;;1.70;;
63016;SDS011;50274;45.640;11.756;2023-04-03T12:58:46;3.83;;;1.38;;
63016;SDS011;50274;45.640;11.756;2023-04-03T13:01:15;7.53;;;1.60;;
63016;SDS011;50274;45.640;11.756;2023-04-03T13:03:53;6.87;;;1.60;;
63016;SDS011;50274;45.640;11.756;2023-04-03T13:06:27;8.32;;;2.17;;
63016;SDS011;50274;45.640;11.756;2023-04-03T13:08:58;4.38;;;1.80;;
63016;SDS011;50274;45.640;11.756;2023-04-03T13:11:26;4.88;;;1.83;;
63016;SDS011;50274;45.640;11.756;2023-04-03T13:14:02;6.25;;;2.30;;
63016;SDS011;50274;45.640;11.756;2023-04-03T13:16:32;5.50;;;2.07;;
63016;SDS011;50274;45.640;11.756;2023-04-03T13:18:58;5.20;;;2.30;;
63016;SDS011;50274;45.640;11.756;2023-04-03T13:21:33;9.02;;;3.45;;
63016;SDS011;50274;45.640;11.756;2023-04-03T13:24:01;6.13;;;2.50;;
63016;SDS011;50274;45.640;11.756;2023-04-03T13:26:31;8.85;;;3.30;;
63016;SDS011;50274;45.640;11.756;2023-04-03T13:29:05;7.23;;;2.40;;
63016;SDS011;50274;45.640;11.756;2023-04-03T13:31:46;4.82;;;2.20;;
63016;SDS011;50274;45.640;11.756;2023-04-03T13:34:14;5.15;;;2.40;;
63016;SDS011;50274;45.640;11.756;2023-04-03T13:39:45;6.82;;;2.55;;
63016;SDS011;50274;45.640;11.756;2023-04-03T13:42:25;5.13;;;2.43;;
63016;SDS011;50274;45.640;11.756;2023-04-03T13:45:11;5.50;;;2.60;;
63016;SDS011;50274;45.640;11.756;2023-04-03T13:47:48;7.95;;;3.45;;
63016;SDS011;50274;45.640;11.756;2023-04-03T13:50:24;5.38;;;2.30;;
63016;SDS011;50274;45.640;11.756;2023-04-03T13:55:58;4.80;;;2.10;;
63016;SDS011;50274;45.640;11.756;2023-04-03T13:58:25;4.55;;;2.05;;
63016;SDS011;50274;45.640;11.756;2023-04-03T14:03:40;5.50;;;2.63;;
63016;SDS011;50274;45.640;11.756;2023-04-03T14:06:11;5.40;;;2.42;;
63016;SDS011;50274;45.640;11.756;2023-04-03T14:08:44;4.70;;;2.17;;
63016;SDS011;50274;45.640;11.756;2023-04-03T14:11:18;5.63;;;1.95;;
63016;SDS011;50274;45.640;11.756;2023-04-03T14:13:49;6.10;;;2.13;;
63016;SDS011;50274;45.640;11.756;2023-04-03T14:16:20;5.70;;;2.22;;
63016;SDS011;50274;45.640;11.756;2023-04-03T14:18:53;6.00;;;2.40;;
63016;SDS011;50274;45.640;11.756;2023-04-03T14:21:19;5.67;;;2.40;;
63016;SDS011;50274;45.640;11.756;2023-04-03T14:23:46;4.75;;;2.08;;
63016;SDS011;50274;45.640;11.756;2023-04-03T14:26:18;5.95;;;2.13;;
63016;SDS011;50274;45.640;11.756;2023-04-03T14:28:49;4.78;;;1.67;;
63016;SDS011;50274;45.640;11.756;2023-04-03T14:31:19;4.95;;;1.88;;
63016;SDS011;50274;45.640;11.756;2023-04-03T14:33:48;4.10;;;1.40;;
63016;SDS011;50274;45.640;11.756;2023-04-03T14:36:19;5.32;;;1.92;;
63016;SDS011;50274;45.640;11.756;2023-04-03T14:38:51;8.57;;;2.20;;
63016;SDS011;50274;45.640;11.756;2023-04-03T14:41:23;6.63;;;1.63;;
63016;SDS011;50274;45.640;11.756;2023-04-03T14:43:54;7.40;;;2.15;;
63016;SDS011;50274;45.640;11.756;2023-04-03T14:46:42;8.40;;;1.77;;
63016;SDS011;50274;45.640;11.756;2023-04-03T14:49:12;14.75;;;2.05;;
63016;SDS011;50274;45.640;11.756;2023-04-03T14:51:44;4.30;;;1.17;;
63016;SDS011;50274;45.640;11.756;2023-04-03T14:54:12;6.25;;;1.30;;
63016;SDS011;50274;45.640;11.756;2023-04-03T14:56:40;6.45;;;1.45;;
63016;SDS011;50274;45.640;11.756;2023-04-03T14:59:11;6.83;;;1.10;;
63016;SDS011;50274;45.640;11.756;2023-04-03T15:01:41;7.07;;;1.35;;
63016;SDS011;50274;45.640;11.756;2023-04-03T15:04:12;4.25;;;0.90;;
63016;SDS011;50274;45.640;11.756;2023-04-03T15:06:39;6.32;;;0.90;;
63016;SDS011;50274;45.640;11.756;2023-04-03T15:09:11;7.63;;;0.95;;
63016;SDS011;50274;45.640;11.756;2023-04-03T15:11:48;11.00;;;2.67;;
63016;SDS011;50274;45.640;11.756;2023-04-03T15:14:14;8.30;;;1.35;;
63016;SDS011;50274;45.640;11.756;2023-04-03T15:16:44;10.77;;;1.10;;
63016;SDS011;50274;45.640;11.756;2023-04-03T15:19:10;5.35;;;0.88;;
63016;SDS011;50274;45.640;11.756;2023-04-03T15:21:36;7.78;;;0.90;;
63016;SDS011;50274;45.640;11.756;2023-04-03T15:24:10;8.47;;;1.40;;
63016;SDS011;50274;45.640;11.756;2023-04-03T15:26:36;7.28;;;1.05;;
63016;SDS011;50274;45.640;11.756;2023-04-03T15:29:06;5.15;;;1.08;;
63016;SDS011;50274;45.640;11.756;2023-04-03T15:31:32;6.57;;;0.90;;
63016;SDS011;50274;45.640;11.756;2023-04-03T15:33:58;7.03;;;1.00;;
63016;SDS011;50274;45.640;11.756;2023-04-03T15:36:26;9.38;;;1.10;;
63016;SDS011;50274;45.640;11.756;2023-04-03T15:38:52;7.55;;;0.95;;
63016;SDS011;50274;45.640;11.756;2023-04-03T15:41:24;12.48;;;1.10;;
63016;SDS011;50274;45.640;11.756;2023-04-03T15:43:52;6.38;;;1.30;;
63016;SDS011;50274;45.640;11.756;2023-04-03T15:46:18;9.57;;;1.80;;
63016;SDS011;50274;45.640;11.756;2023-04-03T15:48:46;10.10;;;2.83;;
63016;SDS011;50274;45.640;11.756;2023-04-03T15:51:15;6.38;;;2.03;;
63016;SDS011;50274;45.640;11.756;2023-04-03T15:53:41;5.85;;;1.15;;
63016;SDS011;50274;45.640;11.756;2023-04-03T15:56:10;5.23;;;1.00;;
63016;SDS011;50274;45.640;11.756;2023-04-03T15:58:37;9.75;;;1.30;;
63016;SDS011;50274;45.640;11.756;2023-04-03T16:01:05;6.15;;;1.50;;
63016;SDS011;50274;45.640;11.756;2023-04-03T16:03:31;6.05;;;1.67;;
63016;SDS011;50274;45.640;11.756;2023-04-03T16:05:57;6.63;;;1.30;;
63016;SDS011;50274;45.640;11.756;2023-04-03T16:08:22;5.57;;;1.20;;
63016;SDS011;50274;45.640;11.756;2023-04-03T16:10:50;8.23;;;1.25;;
63016;SDS011;50274;45.640;11.756;2023-04-03T16:13:15;5.43;;;1.30;;
63016;SDS011;50274;45.640;11.756;2023-04-03T16:15:43;6.13;;;1.53;;
63016;SDS011;50274;45.640;11.756;2023-04-03T16:18:13;8.95;;;1.27;;
63016;SDS011;50274;45.640;11.756;2023-04-03T16:20:39;7.95;;;1.40;;
63016;SDS011;50274;45.640;11.756;2023-04-03T16:23:11;6.50;;;1.42;;
63016;SDS011;50274;45.640;11.756;2023-04-03T16:25:37;6.32;;;1.50;;
63016;SDS011;50274;45.640;11.756;2023-04-03T16:28:03;9.00;;;1.00;;
63016;SDS011;50274;45.640;11.756;2023-04-03T16:30:29;5.63;;;1.13;;